createdAt,value
2023-12-19T06:17:19.409Z,3.90
2023-12-19T06:19:48.602Z,4.90
2023-12-19T06:22:17.673Z,4.10
2023-12-19T06:24:46.992Z,4.10
2023-12-19T06:27:17.470Z,4.00
2023-12-19T06:29:47.522Z,5.20
2023-12-19T06:32:16.751Z,3.10
2023-12-19T06:34:46.011Z,4.40
2023-12-19T06:37:15.012Z,4.30
2023-12-19T06:39:44.861Z,5.00
2023-12-19T06:42:14.082Z,4.90
2023-12-19T06:44:43.333Z,4.40
2023-12-19T06:47:13.034Z,4.70
2023-12-19T06:49:44.061Z,4.40
2023-12-19T06:52:13.115Z,4.60
2023-12-19T06:54:42.111Z,4.00
2023-12-19T06:57:11.154Z,4.30
2023-12-19T06:59:40.206Z,4.40
2023-12-19T07:02:09.137Z,4.60
2023-12-19T07:04:38.242Z,3.60
2023-12-19T07:07:07.409Z,5.70
2023-12-19T07:09:38.991Z,5.10
2023-12-19T07:12:08.521Z,4.60
2023-12-19T07:14:38.649Z,3.40
2023-12-19T07:17:07.857Z,3.50
2023-12-19T07:19:37.480Z,4.50
2023-12-19T07:22:06.601Z,5.20
2023-12-19T07:24:35.849Z,4.00
2023-12-19T07:27:06.144Z,3.70
2023-12-19T07:29:35.032Z,4.70
2023-12-19T07:32:06.293Z,5.40
2023-12-19T07:34:35.397Z,4.20
2023-12-19T07:37:04.860Z,5.20
2023-12-19T07:39:34.261Z,4.30
2023-12-19T07:42:03.439Z,3.40
2023-12-19T07:44:32.500Z,3.60
2023-12-19T07:47:01.362Z,3.40
2023-12-19T07:49:30.332Z,4.30
2023-12-19T07:51:59.325Z,4.80
2023-12-19T07:54:28.389Z,3.40
2023-12-19T07:56:57.346Z,3.20
2023-12-19T07:59:26.345Z,2.70
2023-12-19T08:01:55.397Z,3.10
2023-12-19T08:04:24.594Z,2.50
2023-12-19T08:06:53.599Z,3.30
2023-12-19T08:09:22.645Z,2.10
2023-12-19T08:11:51.616Z,2.80
2023-12-19T08:14:20.616Z,2.70
2023-12-19T08:16:49.979Z,2.40
2023-12-19T08:19:19.214Z,2.40
2023-12-19T08:21:55.673Z,2.90
2023-12-19T08:24:25.022Z,1.90
2023-12-19T08:26:54.210Z,2.60
2023-12-19T08:29:23.185Z,2.40
2023-12-19T08:31:52.100Z,3.20
2023-12-19T08:34:21.193Z,2.70
2023-12-19T08:36:50.410Z,2.50
2023-12-19T08:39:19.404Z,2.30
2023-12-19T08:41:48.468Z,2.60
2023-12-19T08:44:17.555Z,2.80
2023-12-19T08:46:46.487Z,2.30
2023-12-19T08:49:15.783Z,3.70
2023-12-19T08:51:51.104Z,3.10
2023-12-19T08:54:20.382Z,3.00
2023-12-19T08:56:49.372Z,3.20
2023-12-19T08:59:18.469Z,3.40
2023-12-19T09:01:47.468Z,3.10
2023-12-19T09:04:16.818Z,2.40
2023-12-19T09:06:45.897Z,2.20
2023-12-19T09:09:15.412Z,3.50
2023-12-19T09:11:44.396Z,4.00
2023-12-19T09:14:13.758Z,3.50
2023-12-19T09:16:44.212Z,3.50
2023-12-19T09:19:15.803Z,3.60
2023-12-19T09:21:45.058Z,3.70
2023-12-19T09:24:14.156Z,5.00
2023-12-19T09:26:43.137Z,4.80
2023-12-19T09:29:12.142Z,4.60
2023-12-19T09:31:41.381Z,4.90
2023-12-19T09:34:14.392Z,4.70
2023-12-19T09:36:53.238Z,4.90
2023-12-19T09:39:26.153Z,4.80
2023-12-19T09:41:55.336Z,4.70
2023-12-19T09:44:26.419Z,4.30
2023-12-19T09:46:55.980Z,5.30
2023-12-19T09:49:27.142Z,5.30
2023-12-19T09:51:57.766Z,4.70
2023-12-19T09:54:27.318Z,4.80
2023-12-19T09:56:59.324Z,5.40
2023-12-19T09:59:29.768Z,6.00
2023-12-19T10:01:58.893Z,3.40
2023-12-19T10:04:29.036Z,5.00
2023-12-19T10:07:01.911Z,4.60
2023-12-19T10:09:31.292Z,4.70
2023-12-19T10:12:13.867Z,5.20
2023-12-19T10:14:42.973Z,4.00
2023-12-19T10:17:16.316Z,4.10
2023-12-19T10:19:46.310Z,4.70
2023-12-19T10:22:21.077Z,4.30
2023-12-19T10:24:51.469Z,4.70
2023-12-19T10:27:23.291Z,5.20
2023-12-19T10:29:53.131Z,4.50
2023-12-19T10:32:22.100Z,4.50
2023-12-19T10:34:57.786Z,5.10
2023-12-19T10:37:39.894Z,4.30
2023-12-19T10:40:20.822Z,4.40
2023-12-19T10:42:57.624Z,4.10
2023-12-19T10:45:27.225Z,3.30
2023-12-19T10:47:56.338Z,3.10
2023-12-19T10:50:25.965Z,3.30
2023-12-19T10:53:01.353Z,3.20
2023-12-19T10:55:38.185Z,3.80
2023-12-19T10:58:07.738Z,4.10
2023-12-19T11:00:41.779Z,3.10
2023-12-19T11:03:24.828Z,3.90
2023-12-19T11:05:55.680Z,3.90
2023-12-19T11:08:27.521Z,3.90
2023-12-19T11:11:07.697Z,2.80
2023-12-19T11:13:37.445Z,3.40
2023-12-19T11:16:20.976Z,3.10
2023-12-19T11:19:05.538Z,2.40
2023-12-19T11:21:55.516Z,2.90
2023-12-19T11:24:46.750Z,3.40
2023-12-19T11:27:27.045Z,3.50
2023-12-19T11:29:57.668Z,3.80
2023-12-19T11:32:32.945Z,3.30
2023-12-19T11:35:09.396Z,3.60
2023-12-19T11:37:39.698Z,3.60
2023-12-19T11:40:11.630Z,3.70
2023-12-19T11:42:41.055Z,3.70
2023-12-19T11:45:19.670Z,3.60
2023-12-19T11:47:50.460Z,3.60
2023-12-19T11:50:42.045Z,2.60
2023-12-19T11:53:11.313Z,3.10
2023-12-19T11:55:40.302Z,2.60
2023-12-19T11:58:12.937Z,4.30
2023-12-19T12:00:44.795Z,2.80
2023-12-19T12:03:14.430Z,2.70
2023-12-19T12:05:43.795Z,3.60
2023-12-19T12:08:15.822Z,3.20
2023-12-19T12:10:58.735Z,3.30
2023-12-19T12:13:29.272Z,3.40
2023-12-19T12:15:59.337Z,3.40
2023-12-19T12:18:31.899Z,3.20
2023-12-19T12:21:08.940Z,3.80
2023-12-19T12:23:38.065Z,3.60
2023-12-19T12:26:07.831Z,3.60
2023-12-19T12:28:38.329Z,4.70
2023-12-19T12:31:08.565Z,4.20
2023-12-19T12:33:38.348Z,4.00
2023-12-19T12:36:12.743Z,3.80
2023-12-19T12:38:41.813Z,4.20
2023-12-19T12:41:11.356Z,3.80
2023-12-19T12:43:45.744Z,3.90
2023-12-19T12:46:17.671Z,4.70
2023-12-19T12:48:52.989Z,3.70
2023-12-19T12:51:22.303Z,4.50
2023-12-19T12:53:58.821Z,4.70
2023-12-19T12:56:33.593Z,4.70
2023-12-19T12:59:09.020Z,4.20
2023-12-19T13:01:40.619Z,3.70
2023-12-19T13:04:10.863Z,4.40
2023-12-19T13:06:45.154Z,3.50
2023-12-19T13:09:16.328Z,3.90
2023-12-19T13:11:45.948Z,4.10
2023-12-19T13:14:16.179Z,3.50
2023-12-19T13:16:46.361Z,3.80
2023-12-19T13:19:16.524Z,3.70
2023-12-19T13:21:47.496Z,4.40
2023-12-19T13:24:19.178Z,4.40
2023-12-19T13:26:50.678Z,4.40
2023-12-19T13:29:20.789Z,4.20
2023-12-19T13:31:49.844Z,4.50
2023-12-19T13:34:18.845Z,5.20
2023-12-19T13:36:48.205Z,8.70
2023-12-19T13:39:21.554Z,4.80
2023-12-19T13:41:52.742Z,5.50
2023-12-19T13:44:22.428Z,4.70
2023-12-19T13:46:51.943Z,4.40
2023-12-19T13:49:21.160Z,4.70
2023-12-19T13:51:50.887Z,5.10
2023-12-19T13:54:21.850Z,4.70
2023-12-19T13:56:50.882Z,4.90
2023-12-19T13:59:20.201Z,4.30
2023-12-19T14:01:50.533Z,4.90
2023-12-19T14:04:22.297Z,4.50
2023-12-19T14:06:51.421Z,4.90
2023-12-19T14:09:20.874Z,4.10
2023-12-19T14:11:52.851Z,4.80
2023-12-19T14:16:50.722Z,4.60
2023-12-19T14:19:19.947Z,4.80
2023-12-19T14:21:51.501Z,5.10
2023-12-19T14:24:20.596Z,2.50
2023-12-19T14:26:49.453Z,3.90
2023-12-19T14:29:18.967Z,3.80
2023-12-19T14:31:48.399Z,3.80
2023-12-19T14:34:17.594Z,4.10
2023-12-19T14:36:47.517Z,4.50
2023-12-19T14:39:16.924Z,4.10
2023-12-19T14:41:45.875Z,4.10
2023-12-19T14:44:14.768Z,4.10
2023-12-19T14:46:47.472Z,4.00
2023-12-19T14:49:17.267Z,3.90
2023-12-19T14:51:46.638Z,3.90
2023-12-19T14:54:15.860Z,3.50
2023-12-19T14:56:44.902Z,6.80
2023-12-19T14:59:14.268Z,4.40
2023-12-19T15:01:46.343Z,3.10
2023-12-19T15:04:15.575Z,3.10
2023-12-19T15:06:44.706Z,3.60
2023-12-19T15:09:13.729Z,3.80
2023-12-19T15:11:44.095Z,3.60
2023-12-19T15:14:15.293Z,3.50
2023-12-19T15:16:46.711Z,4.00
2023-12-19T15:19:15.774Z,3.70
2023-12-19T15:21:44.953Z,4.10
2023-12-19T15:24:14.039Z,2.60
2023-12-19T15:26:43.645Z,3.10
2023-12-19T15:29:16.001Z,3.90
2023-12-19T15:31:45.936Z,3.40
2023-12-19T15:34:17.020Z,3.20
2023-12-19T15:36:46.626Z,4.10
2023-12-19T15:39:15.714Z,2.90
2023-12-19T15:41:44.657Z,3.50
2023-12-19T15:44:14.014Z,2.80
2023-12-19T15:46:44.018Z,3.40
2023-12-19T15:49:16.869Z,3.20
2023-12-19T15:51:46.015Z,3.70
2023-12-19T15:54:19.561Z,3.30
2023-12-19T15:56:48.759Z,3.00
2023-12-19T15:59:19.189Z,2.80
2023-12-19T16:01:49.861Z,3.50
2023-12-19T16:04:19.164Z,3.60
2023-12-19T16:06:49.699Z,3.50
2023-12-19T16:09:18.848Z,4.60
2023-12-19T16:11:49.379Z,4.00
2023-12-19T16:14:18.314Z,3.10
2023-12-19T16:16:47.336Z,4.50
2023-12-19T16:19:16.470Z,3.70
2023-12-19T16:21:45.684Z,3.80
2023-12-19T16:24:15.264Z,3.90
2023-12-19T16:26:44.980Z,4.20
2023-12-19T16:29:13.972Z,4.00
2023-12-19T16:31:43.088Z,3.50
2023-12-19T16:34:12.176Z,4.60
2023-12-19T16:36:45.568Z,4.50
2023-12-19T16:39:14.565Z,4.80
2023-12-19T16:41:43.528Z,3.20
2023-12-19T16:44:13.876Z,4.40
2023-12-19T16:46:46.741Z,3.50
2023-12-19T16:49:17.621Z,4.50
2023-12-19T16:51:46.850Z,4.40
2023-12-19T16:54:16.621Z,3.10
2023-12-19T16:56:47.497Z,3.50
2023-12-19T16:59:18.483Z,3.10
2023-12-19T17:01:52.612Z,4.00
2023-12-19T17:04:21.824Z,2.80
2023-12-19T17:06:59.922Z,3.70
2023-12-19T17:09:30.132Z,3.90
2023-12-19T17:11:59.256Z,3.50
2023-12-19T17:14:28.143Z,4.40
2023-12-19T17:19:46.349Z,2.90
2023-12-19T17:22:15.846Z,3.30
2023-12-19T17:24:46.713Z,3.30
2023-12-19T17:27:17.811Z,3.40
2023-12-19T17:29:46.766Z,3.70
2023-12-19T17:32:15.674Z,3.60
2023-12-19T17:34:45.375Z,3.70
2023-12-19T17:37:14.668Z,2.20
2023-12-19T17:39:44.158Z,3.00
2023-12-19T17:42:13.342Z,3.40
2023-12-19T17:44:42.325Z,3.50
2023-12-19T17:47:11.247Z,2.50
2023-12-19T17:49:40.419Z,3.50
2023-12-19T17:52:10.735Z,3.30
2023-12-19T17:54:41.478Z,3.00
2023-12-19T17:57:11.292Z,4.10
2023-12-19T17:59:40.341Z,3.80
2023-12-19T18:02:09.948Z,3.60
2023-12-19T18:04:39.301Z,3.00
2023-12-19T18:07:08.935Z,3.60
2023-12-19T18:09:38.072Z,4.30
2023-12-19T18:12:08.186Z,4.00
2023-12-19T18:14:37.108Z,4.30
2023-12-19T18:17:06.000Z,3.90
2023-12-19T18:19:35.608Z,3.90
2023-12-19T18:22:05.164Z,4.20
2023-12-19T18:24:34.168Z,4.50
2023-12-19T18:27:05.550Z,4.10
2023-12-19T18:29:34.740Z,4.80
2023-12-19T18:32:04.097Z,3.50
2023-12-19T18:34:33.353Z,5.00
2023-12-19T18:37:02.764Z,3.90
2023-12-19T18:39:31.874Z,4.20
2023-12-19T18:42:00.818Z,5.00
2023-12-19T18:44:29.989Z,2.70
2023-12-19T18:46:58.992Z,4.50
2023-12-19T18:49:28.051Z,3.90
2023-12-19T18:51:58.988Z,3.60
2023-12-19T18:54:29.407Z,4.60
2023-12-19T18:56:58.456Z,4.70
2023-12-19T18:59:27.459Z,4.80
2023-12-19T19:01:56.559Z,5.10
2023-12-19T19:04:27.649Z,4.10
2023-12-19T19:06:57.629Z,4.60
2023-12-19T19:09:26.712Z,5.60
2023-12-19T19:11:55.910Z,5.40
2023-12-19T19:14:24.896Z,5.90
2023-12-19T19:16:53.902Z,6.50
2023-12-19T19:19:23.220Z,5.80
2023-12-19T19:21:52.272Z,5.40
2023-12-19T19:24:21.289Z,6.20
2023-12-19T19:26:51.177Z,6.60
2023-12-19T19:29:20.704Z,6.60
2023-12-19T19:31:49.998Z,5.00
2023-12-19T19:34:22.550Z,6.20
2023-12-19T19:36:52.741Z,6.00
2023-12-19T19:39:23.503Z,5.80
2023-12-19T19:41:52.463Z,4.90
2023-12-19T19:44:22.547Z,4.90
2023-12-19T19:46:52.754Z,5.70
2023-12-19T19:49:21.888Z,5.40
2023-12-19T19:51:51.488Z,5.30
2023-12-19T19:54:21.439Z,3.10
2023-12-19T19:56:50.429Z,4.00
2023-12-19T19:59:25.203Z,6.00
2023-12-19T20:01:56.745Z,5.90
2023-12-19T20:04:26.022Z,5.20
2023-12-19T20:06:56.818Z,5.20
2023-12-19T20:09:26.090Z,5.20
2023-12-19T20:11:55.084Z,6.40
2023-12-19T20:14:24.280Z,5.30
2023-12-19T20:16:53.278Z,6.10
2023-12-19T20:19:22.261Z,5.50
2023-12-19T20:21:51.243Z,7.50
2023-12-19T20:24:20.352Z,7.10
2023-12-19T20:26:49.770Z,6.90
2023-12-19T20:29:20.624Z,7.20
2023-12-19T20:31:49.691Z,7.20
2023-12-19T20:34:19.445Z,7.50
2023-12-19T20:36:48.752Z,7.50
2023-12-19T20:39:17.824Z,6.50
2023-12-19T20:41:46.911Z,5.90
2023-12-19T20:44:15.857Z,7.20
2023-12-19T20:46:45.290Z,6.30
2023-12-19T20:49:14.353Z,5.20
2023-12-19T20:51:43.627Z,6.40
2023-12-19T20:54:16.643Z,6.50
2023-12-19T20:56:48.506Z,6.80
2023-12-19T21:01:46.907Z,6.70
2023-12-19T21:04:16.085Z,6.40
2023-12-19T21:06:46.712Z,10.80
2023-12-19T21:09:15.696Z,4.00
2023-12-19T21:11:44.663Z,6.90
2023-12-19T21:14:13.764Z,6.20
2023-12-19T21:16:58.013Z,6.40
2023-12-19T21:19:34.476Z,6.60
2023-12-19T21:22:04.008Z,6.90
2023-12-19T21:24:34.181Z,6.40
2023-12-19T21:27:03.750Z,5.50
2023-12-19T21:29:32.956Z,6.30
2023-12-19T21:32:01.974Z,5.20
2023-12-19T21:34:31.068Z,6.60
2023-12-19T21:37:00.240Z,6.40
2023-12-19T21:39:30.688Z,6.60
2023-12-19T21:42:00.086Z,7.90
2023-12-19T21:44:29.004Z,6.70
2023-12-19T21:46:58.115Z,6.50
2023-12-19T21:49:27.234Z,7.10
2023-12-19T21:51:56.314Z,6.80
2023-12-19T21:54:25.314Z,6.00
2023-12-19T21:56:54.524Z,5.90
2023-12-19T21:59:23.448Z,7.90
2023-12-19T22:01:52.603Z,7.90
2023-12-19T22:04:21.698Z,7.40
2023-12-19T22:06:50.895Z,7.30
2023-12-19T22:09:19.971Z,7.10
2023-12-19T22:11:50.921Z,6.70
2023-12-19T22:14:19.953Z,7.20
2023-12-19T22:16:48.932Z,8.20
2023-12-19T22:19:17.889Z,6.90
2023-12-19T22:21:46.953Z,6.40
2023-12-19T22:24:15.860Z,7.50
2023-12-19T22:26:44.877Z,8.50
2023-12-19T22:31:45.410Z,6.90
2023-12-19T22:34:14.588Z,6.80
2023-12-19T22:36:43.837Z,6.80
2023-12-19T22:39:13.153Z,7.30
2023-12-19T22:41:43.578Z,6.90
2023-12-19T22:44:12.564Z,8.30
2023-12-19T22:46:41.628Z,8.00
2023-12-19T22:49:10.727Z,6.70
2023-12-19T22:51:42.791Z,7.00
2023-12-19T22:56:40.686Z,6.70
2023-12-19T22:59:09.567Z,7.00
2023-12-19T23:04:10.438Z,8.20
2023-12-19T23:06:39.422Z,7.10
2023-12-19T23:09:08.728Z,7.70
2023-12-19T23:11:37.909Z,8.20
2023-12-19T23:14:07.223Z,6.90
2023-12-19T23:16:36.653Z,6.50
2023-12-19T23:19:06.509Z,7.30
2023-12-19T23:21:35.578Z,8.60
2023-12-19T23:24:05.364Z,7.40
2023-12-19T23:26:34.504Z,7.40
2023-12-19T23:29:03.817Z,7.80
2023-12-19T23:31:39.355Z,7.50
2023-12-19T23:36:41.113Z,5.20
2023-12-19T23:39:10.205Z,5.20
2023-12-19T23:41:39.262Z,5.80
2023-12-19T23:44:08.128Z,7.40
2023-12-19T23:46:36.959Z,6.30
2023-12-19T23:49:06.199Z,6.60
2023-12-19T23:51:35.264Z,7.10
2023-12-19T23:54:04.643Z,6.70
2023-12-19T23:56:33.677Z,5.80
2023-12-19T23:59:02.660Z,5.80
